FIRE34 KHRT-KTTS
Flight info
| Callsign | FIRE34 |
|---|---|
| Flight time | N/A |
| Altitude | 2500 |
| Route | VFR |
| Aircraft | V22/M-S/C |
Departure
| Time | N/A |
|---|---|
| Airport | Hurlburt Field (KHRT) |
Arrival
| Time | 2026-05-08 14:07 |
|---|---|
| Airport | Space Florida Launch and Landing Facility (KTTS) |
| Time | Latitude | Longitude | Altitude | Speed | Heading |
|---|---|---|---|---|---|
| 2026-05-08 13:05 | 29.91032 | -84.85823 | 2004 ft | 258 kts | 109° |
| 2026-05-08 13:05 | 29.90463 | -84.83865 | 1998 ft | 258 kts | 109° |
| 2026-05-08 13:06 | 29.89893 | -84.81910 | 1979 ft | 257 kts | 109° |
| 2026-05-08 13:06 | 29.89320 | -84.79951 | 1977 ft | 258 kts | 108° |
| 2026-05-08 13:06 | 29.88747 | -84.78000 | 1984 ft | 257 kts | 108° |
| 2026-05-08 13:06 | 29.88178 | -84.76046 | 1979 ft | 257 kts | 108° |
| 2026-05-08 13:07 | 29.87608 | -84.74100 | 1982 ft | 255 kts | 108° |
| 2026-05-08 13:07 | 29.87042 | -84.72161 | 1973 ft | 256 kts | 109° |
| 2026-05-08 13:07 | 29.86471 | -84.70218 | 1983 ft | 257 kts | 109° |
| 2026-05-08 13:07 | 29.85896 | -84.68263 | 1987 ft | 259 kts | 109° |
| 2026-05-08 13:08 | 29.85319 | -84.66291 | 1990 ft | 259 kts | 109° |
| 2026-05-08 13:08 | 29.84741 | -84.64324 | 1988 ft | 259 kts | 108° |
| 2026-05-08 13:08 | 29.84163 | -84.62358 | 1967 ft | 258 kts | 108° |
| 2026-05-08 13:08 | 29.83589 | -84.60411 | 1975 ft | 257 kts | 108° |
| 2026-05-08 13:09 | 29.83019 | -84.58457 | 1975 ft | 257 kts | 108° |
| 2026-05-08 13:09 | 29.82442 | -84.56508 | 1966 ft | 257 kts | 108° |
| 2026-05-08 13:09 | 29.81870 | -84.54562 | 1972 ft | 257 kts | 109° |
| 2026-05-08 13:09 | 29.81294 | -84.52613 | 1966 ft | 256 kts | 109° |
| 2026-05-08 13:10 | 29.80723 | -84.50676 | 1971 ft | 255 kts | 108° |
| 2026-05-08 13:10 | 29.80162 | -84.48767 | 1981 ft | 255 kts | 109° |
| 2026-05-08 13:10 | 29.79587 | -84.46834 | 1997 ft | 256 kts | 108° |
| 2026-05-08 13:10 | 29.79015 | -84.44885 | 2000 ft | 257 kts | 108° |
| 2026-05-08 13:11 | 29.78437 | -84.42930 | 2004 ft | 259 kts | 108° |
| 2026-05-08 13:11 | 29.77856 | -84.40970 | 2003 ft | 259 kts | 108° |
| 2026-05-08 13:11 | 29.77274 | -84.39004 | 2023 ft | 261 kts | 108° |
| 2026-05-08 13:11 | 29.76692 | -84.37033 | 2028 ft | 260 kts | 108° |
| 2026-05-08 13:12 | 29.76108 | -84.35059 | 2034 ft | 260 kts | 108° |
| 2026-05-08 13:12 | 29.75520 | -84.33088 | 2019 ft | 261 kts | 108° |
| 2026-05-08 13:12 | 29.74940 | -84.31118 | 1991 ft | 259 kts | 109° |
| 2026-05-08 13:12 | 29.74355 | -84.29161 | 1982 ft | 258 kts | 109° |
| 2026-05-08 13:13 | 29.73774 | -84.27209 | 1971 ft | 257 kts | 109° |
| 2026-05-08 13:13 | 29.73193 | -84.25254 | 1969 ft | 258 kts | 108° |
| 2026-05-08 13:13 | 29.72613 | -84.23302 | 1979 ft | 257 kts | 108° |
| 2026-05-08 13:13 | 29.72036 | -84.21361 | 1986 ft | 258 kts | 108° |
| 2026-05-08 13:14 | 29.71455 | -84.19408 | 1992 ft | 258 kts | 108° |
| 2026-05-08 13:14 | 29.70879 | -84.17477 | 2004 ft | 259 kts | 108° |
| 2026-05-08 13:14 | 29.70294 | -84.15511 | 2010 ft | 260 kts | 108° |
| 2026-05-08 13:14 | 29.69704 | -84.13536 | 1998 ft | 260 kts | 109° |
| 2026-05-08 13:15 | 29.69118 | -84.11570 | 2002 ft | 261 kts | 108° |
| 2026-05-08 13:15 | 29.68529 | -84.09599 | 1990 ft | 260 kts | 109° |
| 2026-05-08 13:15 | 29.67941 | -84.07632 | 1988 ft | 260 kts | 109° |
| 2026-05-08 13:15 | 29.67351 | -84.05670 | 1995 ft | 260 kts | 108° |
| 2026-05-08 13:16 | 29.66768 | -84.03706 | 1982 ft | 259 kts | 109° |
| 2026-05-08 13:16 | 29.66180 | -84.01747 | 1986 ft | 259 kts | 109° |
| 2026-05-08 13:16 | 29.65590 | -83.99787 | 1988 ft | 260 kts | 108° |
| 2026-05-08 13:16 | 29.65005 | -83.97825 | 1990 ft | 259 kts | 109° |
| 2026-05-08 13:17 | 29.64417 | -83.95862 | 1995 ft | 260 kts | 109° |
| 2026-05-08 13:17 | 29.63823 | -83.93899 | 1993 ft | 260 kts | 109° |
| 2026-05-08 13:17 | 29.63235 | -83.91936 | 1991 ft | 260 kts | 109° |
| 2026-05-08 13:17 | 29.62649 | -83.89972 | 1992 ft | 260 kts | 109° |
| 2026-05-08 13:18 | 29.62056 | -83.88010 | 1993 ft | 260 kts | 109° |
| 2026-05-08 13:18 | 29.61463 | -83.86044 | 1996 ft | 260 kts | 109° |
| 2026-05-08 13:18 | 29.60873 | -83.84078 | 1997 ft | 260 kts | 109° |
| 2026-05-08 13:18 | 29.60279 | -83.82108 | 2001 ft | 261 kts | 109° |
| 2026-05-08 13:19 | 29.59694 | -83.80166 | 2011 ft | 261 kts | 109° |
| 2026-05-08 13:19 | 29.59096 | -83.78185 | 2025 ft | 263 kts | 109° |
| 2026-05-08 13:19 | 29.58494 | -83.76193 | 2010 ft | 264 kts | 109° |
| 2026-05-08 13:19 | 29.57895 | -83.74209 | 2000 ft | 263 kts | 109° |
| 2026-05-08 13:20 | 29.57298 | -83.72235 | 1993 ft | 262 kts | 109° |
| 2026-05-08 13:20 | 29.56701 | -83.70259 | 1992 ft | 262 kts | 109° |
| 2026-05-08 13:20 | 29.56107 | -83.68279 | 1994 ft | 262 kts | 109° |
| 2026-05-08 13:20 | 29.55506 | -83.66303 | 1986 ft | 261 kts | 109° |
| 2026-05-08 13:21 | 29.54907 | -83.64340 | 1980 ft | 261 kts | 109° |
| 2026-05-08 13:21 | 29.54315 | -83.62373 | 1986 ft | 260 kts | 109° |
| 2026-05-08 13:21 | 29.53716 | -83.60405 | 1987 ft | 260 kts | 109° |
| 2026-05-08 13:21 | 29.53121 | -83.58445 | 1990 ft | 261 kts | 109° |
| 2026-05-08 13:22 | 29.52533 | -83.56501 | 1993 ft | 261 kts | 109° |
| 2026-05-08 13:22 | 29.51932 | -83.54522 | 1994 ft | 260 kts | 109° |
| 2026-05-08 13:22 | 29.51534 | -83.53218 | 1997 ft | 260 kts | 109° |
| 2026-05-08 13:22 | 29.50737 | -83.50603 | 1994 ft | 261 kts | 109° |
| 2026-05-08 13:23 | 29.50342 | -83.49294 | 1982 ft | 260 kts | 109° |
| 2026-05-08 13:23 | 29.49549 | -83.46698 | 1985 ft | 260 kts | 109° |
| 2026-05-08 13:23 | 29.49144 | -83.45381 | 1993 ft | 261 kts | 109° |
| 2026-05-08 13:23 | 29.48357 | -83.42774 | 1984 ft | 260 kts | 109° |
| 2026-05-08 13:24 | 29.47953 | -83.41455 | 1974 ft | 261 kts | 109° |
| 2026-05-08 13:24 | 29.47348 | -83.39492 | 1974 ft | 260 kts | 109° |
| 2026-05-08 13:24 | 29.46758 | -83.37532 | 1978 ft | 260 kts | 109° |
| 2026-05-08 13:24 | 29.46160 | -83.35581 | 1983 ft | 261 kts | 110° |
| 2026-05-08 13:25 | 29.45556 | -83.33620 | 1984 ft | 260 kts | 109° |
| 2026-05-08 13:25 | 29.44961 | -83.31673 | 1969 ft | 260 kts | 109° |
| 2026-05-08 13:25 | 29.44359 | -83.29714 | 1994 ft | 260 kts | 109° |
| 2026-05-08 13:25 | 29.43758 | -83.27746 | 2005 ft | 261 kts | 109° |
| 2026-05-08 13:26 | 29.43162 | -83.25785 | 1994 ft | 261 kts | 109° |
| 2026-05-08 13:26 | 29.42556 | -83.23824 | 1993 ft | 260 kts | 109° |
| 2026-05-08 13:26 | 29.41962 | -83.21887 | 1998 ft | 260 kts | 109° |
| 2026-05-08 13:26 | 29.41359 | -83.19912 | 1999 ft | 260 kts | 109° |
| 2026-05-08 13:27 | 29.40762 | -83.17983 | 1999 ft | 259 kts | 109° |
| 2026-05-08 13:27 | 29.40157 | -83.16007 | 2006 ft | 260 kts | 109° |
| 2026-05-08 13:27 | 29.39556 | -83.14043 | 2017 ft | 261 kts | 109° |
| 2026-05-08 13:27 | 29.38952 | -83.12084 | 2014 ft | 260 kts | 110° |
| 2026-05-08 13:28 | 29.38342 | -83.10126 | 2020 ft | 261 kts | 109° |
| 2026-05-08 13:28 | 29.37748 | -83.08186 | 2021 ft | 261 kts | 109° |
| 2026-05-08 13:28 | 29.37146 | -83.06223 | 2005 ft | 261 kts | 109° |
| 2026-05-08 13:28 | 29.36540 | -83.04267 | 2002 ft | 260 kts | 109° |
| 2026-05-08 13:29 | 29.35932 | -83.02314 | 1999 ft | 261 kts | 109° |
| 2026-05-08 13:29 | 29.35333 | -83.00353 | 1989 ft | 260 kts | 110° |
| 2026-05-08 13:29 | 29.34730 | -82.98406 | 1996 ft | 259 kts | 111° |
| 2026-05-08 13:29 | 29.34120 | -82.96456 | 2005 ft | 260 kts | 110° |
| 2026-05-08 13:30 | 29.33523 | -82.94501 | 2005 ft | 260 kts | 110° |
| 2026-05-08 13:30 | 29.32919 | -82.92549 | 2002 ft | 260 kts | 110° |
| 2026-05-08 13:30 | 29.32312 | -82.90595 | 2004 ft | 261 kts | 110° |
| 2026-05-08 13:30 | 29.31701 | -82.88636 | 2007 ft | 261 kts | 110° |
| 2026-05-08 13:31 | 29.31095 | -82.86673 | 2006 ft | 261 kts | 110° |
| 2026-05-08 13:31 | 29.30489 | -82.84711 | 2004 ft | 261 kts | 110° |
| 2026-05-08 13:31 | 29.29875 | -82.82751 | 2006 ft | 262 kts | 110° |
| 2026-05-08 13:31 | 29.29270 | -82.80790 | 2000 ft | 261 kts | 110° |
| 2026-05-08 13:32 | 29.28659 | -82.78822 | 1997 ft | 262 kts | 110° |
| 2026-05-08 13:32 | 29.28044 | -82.76856 | 2007 ft | 263 kts | 110° |
| 2026-05-08 13:32 | 29.27428 | -82.74885 | 2003 ft | 262 kts | 109° |
| 2026-05-08 13:32 | 29.26819 | -82.72918 | 1999 ft | 263 kts | 109° |
| 2026-05-08 13:33 | 29.26207 | -82.70947 | 2000 ft | 262 kts | 110° |
| 2026-05-08 13:33 | 29.25604 | -82.69010 | 2007 ft | 262 kts | 110° |
| 2026-05-08 13:33 | 29.24987 | -82.67044 | 2011 ft | 262 kts | 110° |
| 2026-05-08 13:33 | 29.24370 | -82.65074 | 2007 ft | 263 kts | 109° |
| 2026-05-08 13:34 | 29.23761 | -82.63107 | 2002 ft | 261 kts | 110° |
| 2026-05-08 13:34 | 29.23149 | -82.61152 | 2002 ft | 261 kts | 110° |
| 2026-05-08 13:34 | 29.22536 | -82.59201 | 2005 ft | 261 kts | 109° |
| 2026-05-08 13:34 | 29.21926 | -82.57242 | 2013 ft | 262 kts | 110° |
| 2026-05-08 13:35 | 29.21312 | -82.55281 | 2019 ft | 262 kts | 110° |
| 2026-05-08 13:35 | 29.20728 | -82.53423 | 2021 ft | 261 kts | 110° |
| 2026-05-08 13:35 | 29.20115 | -82.51469 | 2027 ft | 262 kts | 110° |
| 2026-05-08 13:35 | 29.19497 | -82.49500 | 2054 ft | 263 kts | 110° |
| 2026-05-08 13:36 | 29.18879 | -82.47527 | 2036 ft | 263 kts | 110° |
| 2026-05-08 13:36 | 29.18265 | -82.45565 | 2021 ft | 261 kts | 110° |
| 2026-05-08 13:36 | 29.17648 | -82.43608 | 2020 ft | 261 kts | 110° |
| 2026-05-08 13:36 | 29.17033 | -82.41651 | 2031 ft | 262 kts | 110° |
| 2026-05-08 13:37 | 29.16416 | -82.39690 | 2031 ft | 262 kts | 110° |
| 2026-05-08 13:37 | 29.15798 | -82.37734 | 2040 ft | 261 kts | 109° |
| 2026-05-08 13:37 | 29.15184 | -82.35775 | 2046 ft | 262 kts | 110° |
| 2026-05-08 13:37 | 29.14569 | -82.33812 | 2058 ft | 263 kts | 110° |
| 2026-05-08 13:38 | 29.13956 | -82.31874 | 2045 ft | 262 kts | 110° |
| 2026-05-08 13:38 | 29.13331 | -82.29909 | 2059 ft | 263 kts | 110° |
| 2026-05-08 13:38 | 29.12714 | -82.27950 | 2032 ft | 261 kts | 110° |
| 2026-05-08 13:38 | 29.12102 | -82.25997 | 2048 ft | 261 kts | 110° |
| 2026-05-08 13:39 | 29.11480 | -82.24044 | 2045 ft | 262 kts | 110° |
| 2026-05-08 13:39 | 29.10863 | -82.22082 | 2060 ft | 262 kts | 110° |
| 2026-05-08 13:39 | 29.10237 | -82.20131 | 2053 ft | 261 kts | 110° |
| 2026-05-08 13:39 | 29.09625 | -82.18177 | 2044 ft | 261 kts | 110° |
| 2026-05-08 13:40 | 29.09010 | -82.16225 | 2037 ft | 262 kts | 110° |
| 2026-05-08 13:40 | 29.08386 | -82.14262 | 2051 ft | 263 kts | 110° |
| 2026-05-08 13:40 | 29.07763 | -82.12294 | 2040 ft | 263 kts | 110° |
| 2026-05-08 13:40 | 29.07139 | -82.10326 | 2024 ft | 263 kts | 110° |
| 2026-05-08 13:41 | 29.06511 | -82.08359 | 2048 ft | 264 kts | 110° |
| 2026-05-08 13:41 | 29.05886 | -82.06385 | 2038 ft | 264 kts | 110° |
| 2026-05-08 13:41 | 29.05262 | -82.04424 | 2013 ft | 262 kts | 110° |
| 2026-05-08 13:41 | 29.04638 | -82.02470 | 2018 ft | 262 kts | 110° |
| 2026-05-08 13:42 | 29.04028 | -82.00532 | 2020 ft | 262 kts | 110° |
| 2026-05-08 13:42 | 29.03395 | -81.98554 | 2010 ft | 262 kts | 110° |
| 2026-05-08 13:42 | 29.02781 | -81.96628 | 2015 ft | 262 kts | 110° |
| 2026-05-08 13:42 | 29.02159 | -81.94670 | 2011 ft | 262 kts | 110° |
| 2026-05-08 13:43 | 29.01531 | -81.92713 | 2002 ft | 262 kts | 110° |
| 2026-05-08 13:43 | 29.00909 | -81.90765 | 2012 ft | 261 kts | 110° |
| 2026-05-08 13:43 | 29.00284 | -81.88812 | 2018 ft | 262 kts | 110° |
| 2026-05-08 13:43 | 28.99663 | -81.86847 | 2018 ft | 263 kts | 110° |
| 2026-05-08 13:44 | 28.99030 | -81.84879 | 2025 ft | 265 kts | 110° |
| 2026-05-08 13:44 | 28.98396 | -81.82909 | 1994 ft | 263 kts | 110° |
| 2026-05-08 13:44 | 28.97772 | -81.80950 | 2010 ft | 263 kts | 110° |
| 2026-05-08 13:44 | 28.97147 | -81.78982 | 2014 ft | 264 kts | 110° |
| 2026-05-08 13:45 | 28.96514 | -81.77014 | 2021 ft | 264 kts | 110° |
| 2026-05-08 13:45 | 28.95881 | -81.75050 | 2009 ft | 264 kts | 110° |
| 2026-05-08 13:45 | 28.95255 | -81.73089 | 1988 ft | 261 kts | 110° |
| 2026-05-08 13:45 | 28.94630 | -81.71144 | 1985 ft | 261 kts | 110° |
| 2026-05-08 13:46 | 28.94002 | -81.69196 | 2015 ft | 262 kts | 110° |
| 2026-05-08 13:46 | 28.93378 | -81.67245 | 2007 ft | 261 kts | 110° |
| 2026-05-08 13:46 | 28.92751 | -81.65298 | 2015 ft | 262 kts | 110° |
| 2026-05-08 13:46 | 28.92121 | -81.63344 | 2017 ft | 263 kts | 110° |
| 2026-05-08 13:47 | 28.91484 | -81.61377 | 2025 ft | 263 kts | 110° |
| 2026-05-08 13:47 | 28.90857 | -81.59430 | 2005 ft | 261 kts | 110° |
| 2026-05-08 13:47 | 28.90242 | -81.57487 | 2000 ft | 258 kts | 110° |
| 2026-05-08 13:47 | 28.89927 | -81.55497 | 2008 ft | 256 kts | 88° |
| 2026-05-08 13:48 | 28.90134 | -81.53486 | 2042 ft | 256 kts | 81° |
| 2026-05-08 13:48 | 28.90343 | -81.51450 | 2030 ft | 259 kts | 82° |
| 2026-05-08 13:48 | 28.90530 | -81.49403 | 2022 ft | 260 kts | 83° |
| 2026-05-08 13:48 | 28.90714 | -81.47351 | 2027 ft | 260 kts | 83° |
| 2026-05-08 13:49 | 28.90900 | -81.45326 | 2016 ft | 260 kts | 83° |
| 2026-05-08 13:49 | 28.91092 | -81.43244 | 2023 ft | 261 kts | 83° |
| 2026-05-08 13:49 | 28.91273 | -81.41181 | 2034 ft | 261 kts | 83° |
| 2026-05-08 13:49 | 28.91458 | -81.39118 | 2025 ft | 261 kts | 83° |
| 2026-05-08 13:50 | 28.91709 | -81.37087 | 2016 ft | 258 kts | 77° |
| 2026-05-08 13:50 | 28.92115 | -81.35120 | 2018 ft | 258 kts | 74° |
| 2026-05-08 13:50 | 28.92555 | -81.33135 | 2016 ft | 256 kts | 77° |
| 2026-05-08 13:50 | 28.92843 | -81.31117 | 2041 ft | 260 kts | 81° |
| 2026-05-08 13:51 | 28.93061 | -81.29071 | 2040 ft | 260 kts | 82° |
| 2026-05-08 13:51 | 28.93260 | -81.27017 | 2036 ft | 260 kts | 83° |
| 2026-05-08 13:51 | 28.93450 | -81.24966 | 2021 ft | 259 kts | 83° |
| 2026-05-08 13:51 | 28.93633 | -81.22922 | 2031 ft | 260 kts | 83° |
| 2026-05-08 13:52 | 28.93817 | -81.20862 | 2061 ft | 262 kts | 83° |
| 2026-05-08 13:52 | 28.94002 | -81.18797 | 2047 ft | 261 kts | 83° |
| 2026-05-08 13:52 | 28.94190 | -81.16722 | 2053 ft | 263 kts | 83° |
| 2026-05-08 13:52 | 28.94378 | -81.14651 | 2028 ft | 262 kts | 83° |
| 2026-05-08 13:53 | 28.94565 | -81.12582 | 2014 ft | 261 kts | 83° |
| 2026-05-08 13:53 | 28.94749 | -81.10520 | 2023 ft | 262 kts | 83° |
| 2026-05-08 13:53 | 28.94936 | -81.08445 | 2043 ft | 263 kts | 82° |
| 2026-05-08 13:53 | 28.95116 | -81.06369 | 2027 ft | 263 kts | 83° |
| 2026-05-08 13:54 | 28.95296 | -81.04294 | 2043 ft | 263 kts | 83° |
| 2026-05-08 13:54 | 28.95482 | -81.02220 | 2032 ft | 262 kts | 83° |
| 2026-05-08 13:54 | 28.95660 | -81.00147 | 2027 ft | 262 kts | 83° |
| 2026-05-08 13:54 | 28.95837 | -80.98079 | 2014 ft | 262 kts | 83° |
| 2026-05-08 13:55 | 28.96011 | -80.96012 | 2006 ft | 261 kts | 83° |
| 2026-05-08 13:55 | 28.96186 | -80.93942 | 2023 ft | 262 kts | 83° |
| 2026-05-08 13:55 | 28.96538 | -80.89799 | 2038 ft | 263 kts | 83° |
| 2026-05-08 13:56 | 28.96706 | -80.87716 | 2039 ft | 263 kts | 83° |
| 2026-05-08 13:56 | 28.96874 | -80.85639 | 2024 ft | 261 kts | 84° |
| 2026-05-08 13:56 | 28.96625 | -80.83607 | 2003 ft | 262 kts | 111° |
| 2026-05-08 13:56 | 28.95730 | -80.81811 | 2007 ft | 260 kts | 123° |
| 2026-05-08 13:57 | 28.94752 | -80.80062 | 2008 ft | 261 kts | 123° |
| 2026-05-08 13:57 | 28.93654 | -80.78423 | 2003 ft | 259 kts | 137° |
| 2026-05-08 13:57 | 28.92275 | -80.77097 | 1994 ft | 259 kts | 142° |
| 2026-05-08 13:57 | 28.90865 | -80.75810 | 1996 ft | 261 kts | 142° |
| 2026-05-08 13:58 | 28.89435 | -80.74533 | 2001 ft | 261 kts | 143° |
| 2026-05-08 13:58 | 28.87996 | -80.73259 | 2003 ft | 262 kts | 143° |
| 2026-05-08 13:58 | 28.86556 | -80.71993 | 2001 ft | 261 kts | 143° |
| 2026-05-08 13:58 | 28.85117 | -80.70733 | 2004 ft | 261 kts | 143° |
| 2026-05-08 13:59 | 28.83679 | -80.69473 | 2007 ft | 261 kts | 143° |
| 2026-05-08 13:59 | 28.82259 | -80.68226 | 1996 ft | 262 kts | 143° |
| 2026-05-08 13:59 | 28.80815 | -80.66958 | 1998 ft | 262 kts | 143° |
| 2026-05-08 13:59 | 28.79373 | -80.65700 | 1996 ft | 261 kts | 143° |
| 2026-05-08 14:00 | 28.77932 | -80.64439 | 2000 ft | 262 kts | 143° |
| 2026-05-08 14:00 | 28.76486 | -80.63175 | 1994 ft | 262 kts | 143° |
| 2026-05-08 14:00 | 28.75037 | -80.61903 | 1996 ft | 263 kts | 142° |
| 2026-05-08 14:00 | 28.73561 | -80.60685 | 1994 ft | 260 kts | 149° |
| 2026-05-08 14:01 | 28.71873 | -80.60050 | 1987 ft | 255 kts | 172° |
| 2026-05-08 14:01 | 28.70112 | -80.59759 | 1993 ft | 253 kts | 173° |
| 2026-05-08 14:01 | 28.68365 | -80.59802 | 2047 ft | 252 kts | 190° |
| 2026-05-08 14:01 | 28.66638 | -80.60125 | 2147 ft | 251 kts | 191° |
| 2026-05-08 14:02 | 28.64897 | -80.60408 | 2132 ft | 254 kts | 189° |
| 2026-05-08 14:02 | 28.63128 | -80.60528 | 2133 ft | 257 kts | 180° |
| 2026-05-08 14:02 | 28.61358 | -80.60132 | 2007 ft | 262 kts | 161° |
| 2026-05-08 14:02 | 28.59768 | -80.59484 | 1854 ft | 206 kts | 164° |
| 2026-05-08 14:03 | 28.58573 | -80.59459 | 1690 ft | 155 kts | 202° |
| 2026-05-08 14:03 | 28.57937 | -80.60125 | 1452 ft | 109 kts | 239° |
| 2026-05-08 14:03 | 28.57645 | -80.60776 | 1444 ft | 87 kts | 245° |
| 2026-05-08 14:03 | 28.57399 | -80.61422 | 1489 ft | 88 kts | 247° |
| 2026-05-08 14:04 | 28.57149 | -80.62059 | 1557 ft | 89 kts | 245° |
| 2026-05-08 14:04 | 28.56898 | -80.62703 | 1569 ft | 89 kts | 247° |
| 2026-05-08 14:04 | 28.56650 | -80.63348 | 1566 ft | 89 kts | 245° |
| 2026-05-08 14:04 | 28.56383 | -80.63985 | 1483 ft | 90 kts | 246° |
| 2026-05-08 14:05 | 28.56159 | -80.64656 | 1431 ft | 87 kts | 252° |
| 2026-05-08 14:05 | 28.56005 | -80.65316 | 1363 ft | 86 kts | 259° |
| 2026-05-08 14:05 | 28.56160 | -80.65943 | 1213 ft | 86 kts | 312° |
| 2026-05-08 14:05 | 28.56673 | -80.66269 | 1184 ft | 85 kts | 336° |
| 2026-05-08 14:06 | 28.57163 | -80.66582 | 1146 ft | 80 kts | 328° |
| 2026-05-08 14:06 | 28.57635 | -80.66907 | 1018 ft | 80 kts | 329° |
| 2026-05-08 14:06 | 28.58060 | -80.67196 | 873 ft | 62 kts | 328° |
| 2026-05-08 14:06 | 28.58435 | -80.67437 | 743 ft | 62 kts | 327° |
| 2026-05-08 14:07 | 28.58804 | -80.67687 | 622 ft | 61 kts | 328° |
| 2026-05-08 14:07 | 28.59169 | -80.67930 | 490 ft | 54 kts | 327° |
| 2026-05-08 14:07 | 28.59426 | -80.68078 | 314 ft | 39 kts | 327° |
| 2026-05-08 14:07 | 28.59618 | -80.68209 | 163 ft | 23 kts | 324° |
| 2026-05-08 14:08 | 28.59705 | -80.68257 | 112 ft | 14 kts | 344° |
| 2026-05-08 14:08 | 28.59744 | -80.68206 | 82 ft | 17 kts | 78° |
| 2026-05-08 14:08 | 28.59805 | -80.68072 | 64 ft | 20 kts | 26° |
| 2026-05-08 14:08 | 28.59910 | -80.68039 | 67 ft | 9 kts | 355° |
| 2026-05-08 14:09 | 28.59944 | -80.68050 | 41 ft | 3 kts | 331° |
| 2026-05-08 14:09 | 28.59962 | -80.68063 | 19 ft | 3 kts | 330° |
| 2026-05-08 14:09 | 28.59965 | -80.68066 | 19 ft | 0 kts | 328° |